Coffeen, Illinois
Current Conditions -  °F | °C
As of 4:35 PM on Monday 26 Jan 2015 (Local Time) from K3LF Reporting Station
Overcast Overcast  
Wind Chill: 24°   Ceiling: 2800
Heat Index: 31°   Visibility: 7mi
Dew Point: 28°   Wind: 8mph
Humidity: 86%   Direction: 170°S
Pressure: 29.9"   Gusts: NA
Location:  39.09°N, 89.39°W
Report Text: K3LF 262235Z AUTO 17007KT 7SM OVC028 00/M02 A2990 RMK AO2 T10051025
Loading
Personal Weather Stations






























Interactive Weather Map New forecast layout! Learn more

10-Day Weather Forecast

Advertisements
Track Severe Weather on mobile